Time,TemperatureF,DewpointF,PressureIn,WindDirection,WindDirectionDegrees,WindSpeedMPH,WindSpeedGustMPH,Humidity,HourlyPrecipIn,Conditions,Clouds,dailyrainin,SoftwareType,DateUTC
2013-06-14 00:02:00,51.0,-2.0,-100.00,NNW,339,5.0,8.0,11,-99.99,,,-99.99,,2013-06-14 07:02:00,
2013-06-14 00:12:00,51.0,-2.0,-100.00,NNW,339,5.0,8.0,11,-99.99,,,-99.99,,2013-06-14 07:12:00,
2013-06-14 00:22:00,51.0,-2.0,-100.00,NNW,339,5.0,8.0,11,-99.99,,,-99.99,,2013-06-14 07:22:00,
2013-06-14 00:33:00,50.0,-2.0,-100.00,North,353,4.0,7.0,11,-99.99,,,-99.99,,2013-06-14 07:33:00,
2013-06-14 00:43:00,50.0,-2.0,-100.00,North,353,4.0,7.0,11,-99.99,,,-99.99,,2013-06-14 07:43:00,
2013-06-14 00:53:00,47.0,-3.0,-100.00,NNW,337,7.0,11.0,12,-99.99,,,-99.99,,2013-06-14 07:53:00,
2013-06-14 01:02:00,47.0,-3.0,-100.00,NNW,337,7.0,11.0,12,-99.99,,,-99.99,,2013-06-14 08:02:00,
2013-06-14 01:12:00,45.0,-3.0,-100.00,North,8,3.0,9.0,13,-99.99,,,-99.99,,2013-06-14 08:12:00,
2013-06-14 01:22:00,45.0,-3.0,-100.00,North,8,3.0,9.0,13,-99.99,,,-99.99,,2013-06-14 08:22:00,
2013-06-14 01:33:00,45.0,-3.0,-100.00,ENE,58,3.0,5.0,13,-99.99,,,-99.99,,2013-06-14 08:33:00,
2013-06-14 01:43:00,45.0,-3.0,-100.00,ENE,58,3.0,5.0,13,-99.99,,,-99.99,,2013-06-14 08:43:00,
2013-06-14 01:53:00,45.0,-3.0,-100.00,ENE,58,3.0,5.0,13,-99.99,,,-99.99,,2013-06-14 08:53:00,
2013-06-14 02:02:00,47.0,-3.0,-100.00,North,-999,-999.0,-999.0,12,-99.99,,,-99.99,,2013-06-14 09:02:00,
2013-06-14 02:12:00,47.0,-3.0,-100.00,North,-999,0.0,0.0,12,-99.99,,,-99.99,,2013-06-14 09:12:00,
2013-06-14 02:22:00,47.0,-3.0,-100.00,North,-999,0.0,0.0,12,-99.99,,,-99.99,,2013-06-14 09:22:00,
2013-06-14 02:33:00,47.0,-3.0,-100.00,North,-999,0.0,0.0,12,-99.99,,,-99.99,,2013-06-14 09:33:00,
2013-06-14 03:01:00,38.0,-5.0,-100.00,North,-999,-999.0,-999.0,16,-99.99,,,-99.99,,2013-06-14 10:01:00,
2013-06-14 03:11:00,38.0,-4.0,-100.00,SE,127,2.0,4.0,16,-99.99,,,-99.99,,2013-06-14 10:11:00,
2013-06-14 03:34:00,40.0,-4.0,-100.00,North,6,2.0,4.0,15,-99.99,,,-99.99,,2013-06-14 10:34:00,
2013-06-14 03:42:00,38.0,-3.0,-100.00,North,1,0.0,2.0,17,-99.99,,,-99.99,,2013-06-14 10:42:00,
2013-06-14 03:43:00,40.0,-4.0,-100.00,North,6,2.0,4.0,15,-99.99,,,-99.99,,2013-06-14 10:43:00,
2013-06-14 03:52:00,40.0,-4.0,-100.00,North,6,2.0,4.0,15,-99.99,,,-99.99,,2013-06-14 10:52:00,
2013-06-14 04:11:00,38.0,-3.0,-100.00,North,1,0.0,2.0,17,-99.99,,,-99.99,,2013-06-14 11:11:00,
2013-06-14 04:52:00,32.0,-4.0,-100.00,North,-999,0.0,0.0,20,-99.99,,,-99.99,,2013-06-14 11:52:00,
2013-06-14 05:32:00,32.0,-4.0,-100.00,NW,326,2.0,4.0,20,-99.99,,,-99.99,,2013-06-14 12:32:00,
2013-06-14 05:43:00,32.0,-4.0,-100.00,NW,326,2.0,4.0,20,-99.99,,,-99.99,,2013-06-14 12:43:00,
2013-06-14 06:02:00,30.0,-2.0,-100.00,ENE,62,2.0,6.0,24,-99.99,,,-99.99,,2013-06-14 13:02:00,
2013-06-14 06:43:00,39.0,-2.0,-100.00,North,-999,-999.0,-999.0,17,-99.99,,,-99.99,,2013-06-14 13:43:00,
2013-06-14 06:53:00,39.0,-2.0,-100.00,ENE,76,1.0,4.0,17,-99.99,,,-99.99,,2013-06-14 13:53:00,
2013-06-14 08:11:00,47.0,18.0,-100.00,NNW,347,4.0,13.0,31,-99.99,,,-99.99,,2013-06-14 15:11:00,
2013-06-14 08:22:00,47.0,18.0,-100.00,NNW,347,4.0,13.0,31,-99.99,,,-99.99,,2013-06-14 15:22:00,
2013-06-14 08:33:00,47.0,18.0,-100.00,NNW,347,4.0,13.0,31,-99.99,,,-99.99,,2013-06-14 15:33:00,
2013-06-14 08:44:00,49.0,20.0,-100.00,North,-999,-999.0,-999.0,32,-99.99,,,-99.99,,2013-06-14 15:44:00,
2013-06-14 08:53:00,49.0,20.0,-100.00,NNW,337,5.0,9.0,32,-99.99,,,-99.99,,2013-06-14 15:53:00,
2013-06-14 09:00:00,52.0,18.0,-100.00,WNW,291,3.0,8.0,26,-99.99,,,-99.99,,2013-06-14 16:00:00,
2013-06-14 09:01:00,49.0,20.0,-100.00,NNW,337,5.0,9.0,32,-99.99,,,-99.99,,2013-06-14 16:01:00,
2013-06-14 09:11:00,49.0,20.0,-100.00,NNW,337,5.0,9.0,32,-99.99,,,-99.99,,2013-06-14 16:11:00,
2013-06-14 09:23:00,52.0,18.0,-100.00,North,-999,-999.0,-999.0,26,-99.99,,,-99.99,,2013-06-14 16:23:00,
2013-06-14 09:33:00,52.0,18.0,-100.00,WNW,291,3.0,8.0,26,-99.99,,,-99.99,,2013-06-14 16:33:00,
2013-06-14 09:41:00,56.0,17.0,-100.00,NW,309,5.0,9.0,21,-99.99,,,-99.99,,2013-06-14 16:41:00,
2013-06-14 09:43:00,52.0,18.0,-100.00,WNW,291,3.0,8.0,26,-99.99,,,-99.99,,2013-06-14 16:43:00,
2013-06-14 09:53:00,52.0,18.0,-100.00,WNW,291,3.0,8.0,26,-99.99,,,-99.99,,2013-06-14 16:53:00,
2013-06-14 10:34:00,56.0,17.0,-100.00,NW,309,5.0,9.0,21,-99.99,,,-99.99,,2013-06-14 17:34:00,
2013-06-14 11:02:00,62.0,19.0,-100.00,North,-999,-999.0,-999.0,18,-99.99,,,-99.99,,2013-06-14 18:02:00,
2013-06-14 11:11:00,62.0,19.0,-100.00,North,-999,-999.0,-999.0,18,-99.99,,,-99.99,,2013-06-14 18:11:00,
2013-06-14 11:21:00,62.0,18.0,-100.00,NNE,21,2.0,6.0,18,-99.99,,,-99.99,,2013-06-14 18:21:00,
2013-06-14 11:32:00,64.0,17.0,-100.00,West,268,5.0,8.0,16,-99.99,,,-99.99,,2013-06-14 18:32:00,
2013-06-14 11:42:00,64.0,17.0,-100.00,West,268,5.0,8.0,16,-99.99,,,-99.99,,2013-06-14 18:42:00,
2013-06-14 11:52:00,64.0,17.0,-100.00,West,268,5.0,8.0,16,-99.99,,,-99.99,,2013-06-14 18:52:00,
2013-06-14 12:01:00,64.0,17.0,-100.00,West,268,5.0,8.0,16,-99.99,,,-99.99,,2013-06-14 19:01:00,
2013-06-14 12:11:00,66.0,17.0,-100.00,North,-999,-999.0,-999.0,15,-99.99,,,-99.99,,2013-06-14 19:11:00,
2013-06-14 12:21:00,66.0,17.0,-100.00,North,350,5.0,11.0,15,-99.99,,,-99.99,,2013-06-14 19:21:00,
2013-06-14 12:32:00,66.0,17.0,-100.00,North,350,5.0,11.0,15,-99.99,,,-99.99,,2013-06-14 19:32:00,
2013-06-14 12:42:00,66.0,17.0,-100.00,North,350,5.0,11.0,15,-99.99,,,-99.99,,2013-06-14 19:42:00,
2013-06-14 12:53:00,66.0,15.0,-100.00,SSE,160,5.0,13.0,14,-99.99,,,-99.99,,2013-06-14 19:53:00,
2013-06-14 13:01:00,66.0,15.0,-100.00,SSE,160,5.0,13.0,14,-99.99,,,-99.99,,2013-06-14 20:01:00,
2013-06-14 13:11:00,66.0,15.0,-100.00,SSE,160,5.0,13.0,14,-99.99,,,-99.99,,2013-06-14 20:11:00,
2013-06-14 13:21:00,66.0,15.0,-100.00,SSE,160,5.0,13.0,14,-99.99,,,-99.99,,2013-06-14 20:21:00,
2013-06-14 13:33:00,70.0,19.0,-100.00,East,86,8.0,16.0,14,-99.99,,,-99.99,,2013-06-14 20:33:00,
2013-06-14 13:43:00,70.0,19.0,-100.00,East,86,8.0,16.0,14,-99.99,,,-99.99,,2013-06-14 20:43:00,
2013-06-14 13:53:00,72.0,17.0,-100.00,SE,137,7.0,17.0,12,-99.99,,,-99.99,,2013-06-14 20:53:00,
2013-06-14 14:01:00,72.0,17.0,-100.00,SE,137,7.0,17.0,12,-99.99,,,-99.99,,2013-06-14 21:01:00,
2013-06-14 14:11:00,71.0,18.0,-100.00,ESE,112,8.0,20.0,13,-99.99,,,-99.99,,2013-06-14 21:11:00,
2013-06-14 14:22:00,71.0,18.0,-100.00,ESE,112,8.0,20.0,13,-99.99,,,-99.99,,2013-06-14 21:22:00,
2013-06-14 14:34:00,71.0,18.0,-100.00,ESE,112,8.0,20.0,13,-99.99,,,-99.99,,2013-06-14 21:34:00,
2013-06-14 14:42:00,71.0,18.0,-100.00,ESE,112,8.0,20.0,13,-99.99,,,-99.99,,2013-06-14 21:42:00,
2013-06-14 15:11:00,72.0,18.0,-100.00,North,-999,-999.0,-999.0,13,-99.99,,,-99.99,,2013-06-14 22:11:00,
2013-06-14 15:22:00,72.0,18.0,-100.00,ENE,62,7.0,17.0,13,-99.99,,,-99.99,,2013-06-14 22:22:00,
2013-06-14 15:33:00,72.0,18.0,-100.00,ENE,62,7.0,17.0,13,-99.99,,,-99.99,,2013-06-14 22:33:00,
2013-06-14 15:43:00,73.0,17.0,-100.00,ENE,65,4.0,9.0,12,-99.99,,,-99.99,,2013-06-14 22:43:00,
2013-06-14 15:53:00,73.0,17.0,-100.00,ENE,65,4.0,9.0,12,-99.99,,,-99.99,,2013-06-14 22:53:00,
2013-06-14 16:01:00,73.0,17.0,-100.00,ENE,65,4.0,9.0,12,-99.99,,,-99.99,,2013-06-14 23:01:00,
2013-06-14 16:43:00,75.0,21.0,-100.00,NE,52,8.0,16.0,13,-99.99,,,-99.99,,2013-06-14 23:43:00,
2013-06-14 16:51:00,78.0,15.0,-100.00,SW,222,3.0,13.0,9,-99.99,,,-99.99,,2013-06-14 23:51:00,
2013-06-14 16:52:00,75.0,21.0,-100.00,NE,52,8.0,16.0,13,-99.99,,,-99.99,,2013-06-14 23:52:00,
2013-06-14 17:01:00,78.0,12.0,-100.00,SW,216,5.0,16.0,8,-99.99,,,-99.99,,2013-06-15 00:01:00,
2013-06-14 17:11:00,78.0,12.0,-100.00,SW,216,5.0,16.0,8,-99.99,,,-99.99,,2013-06-15 00:11:00,
2013-06-14 17:22:00,78.0,15.0,-100.00,SW,222,3.0,13.0,9,-99.99,,,-99.99,,2013-06-15 00:22:00,
2013-06-14 17:33:00,78.0,15.0,-100.00,SW,222,3.0,13.0,9,-99.99,,,-99.99,,2013-06-15 00:33:00,
2013-06-14 17:43:00,78.0,15.0,-100.00,SW,222,3.0,13.0,9,-99.99,,,-99.99,,2013-06-15 00:43:00,
2013-06-14 18:01:00,77.0,11.0,-100.00,SW,226,9.0,17.0,8,-99.99,,,-99.99,,2013-06-15 01:01:00,
2013-06-14 18:11:00,77.0,11.0,-100.00,SW,226,9.0,17.0,8,-99.99,,,-99.99,,2013-06-15 01:11:00,
2013-06-14 18:22:00,76.0,18.0,-100.00,SE,133,11.0,16.0,11,-99.99,,,-99.99,,2013-06-15 01:22:00,
2013-06-14 18:33:00,76.0,18.0,-100.00,SE,133,11.0,16.0,11,-99.99,,,-99.99,,2013-06-15 01:33:00,
2013-06-14 18:42:00,76.0,18.0,-100.00,South,179,4.0,10.0,11,-99.99,,,-99.99,,2013-06-15 01:42:00,
2013-06-14 18:54:00,75.0,19.0,-100.00,East,93,10.0,16.0,12,-99.99,,,-99.99,,2013-06-15 01:54:00,
2013-06-14 19:02:00,75.0,19.0,-100.00,East,93,10.0,16.0,12,-99.99,,,-99.99,,2013-06-15 02:02:00,
2013-06-14 19:11:00,75.0,19.0,-100.00,East,93,10.0,16.0,12,-99.99,,,-99.99,,2013-06-15 02:11:00,
2013-06-14 19:22:00,75.0,19.0,-100.00,East,93,10.0,16.0,12,-99.99,,,-99.99,,2013-06-15 02:22:00,
2013-06-14 19:33:00,73.0,19.0,-100.00,East,90,11.0,15.0,13,-99.99,,,-99.99,,2013-06-15 02:33:00,
2013-06-14 19:43:00,71.0,19.0,-100.00,ENE,71,13.0,18.0,14,-99.99,,,-99.99,,2013-06-15 02:43:00,
2013-06-14 19:53:00,71.0,19.0,-100.00,ENE,71,13.0,18.0,14,-99.99,,,-99.99,,2013-06-15 02:53:00,
2013-06-14 20:01:00,71.0,19.0,-100.00,ENE,71,13.0,18.0,14,-99.99,,,-99.99,,2013-06-15 03:01:00,
2013-06-14 20:11:00,71.0,19.0,-100.00,ENE,71,13.0,18.0,14,-99.99,,,-99.99,,2013-06-15 03:11:00,
2013-06-14 20:23:00,69.0,19.0,-100.00,East,85,7.0,12.0,15,-99.99,,,-99.99,,2013-06-15 03:23:00,
2013-06-14 20:32:00,69.0,19.0,-100.00,East,85,7.0,12.0,15,-99.99,,,-99.99,,2013-06-15 03:32:00,
2013-06-14 20:43:00,69.0,19.0,-100.00,East,85,7.0,12.0,15,-99.99,,,-99.99,,2013-06-15 03:43:00,
2013-06-14 20:52:00,69.0,19.0,-100.00,East,85,7.0,12.0,15,-99.99,,,-99.99,,2013-06-15 03:52:00,
2013-06-14 21:01:00,62.0,22.0,-100.00,WNW,289,2.0,5.0,21,-99.99,,,-99.99,,2013-06-15 04:01:00,
2013-06-14 21:11:00,62.0,22.0,-100.00,WNW,289,2.0,5.0,21,-99.99,,,-99.99,,2013-06-15 04:11:00,
2013-06-14 21:22:00,60.0,20.0,-100.00,SSE,168,4.0,7.0,21,-99.99,,,-99.99,,2013-06-15 04:22:00,
2013-06-14 21:33:00,60.0,20.0,-100.00,SSE,168,4.0,7.0,21,-99.99,,,-99.99,,2013-06-15 04:33:00,
2013-06-14 21:43:00,58.0,22.0,-100.00,WSW,250,3.0,6.0,25,-99.99,,,-99.99,,2013-06-15 04:43:00,
2013-06-14 21:53:00,58.0,22.0,-100.00,WSW,250,3.0,6.0,25,-99.99,,,-99.99,,2013-06-15 04:53:00,
2013-06-14 22:02:00,57.0,22.0,-100.00,SSW,203,3.0,5.0,25,-99.99,,,-99.99,,2013-06-15 05:02:00,
2013-06-14 22:11:00,57.0,22.0,-100.00,SSW,203,3.0,5.0,25,-99.99,,,-99.99,,2013-06-15 05:11:00,
2013-06-14 22:22:00,57.0,22.0,-100.00,SSW,203,3.0,5.0,25,-99.99,,,-99.99,,2013-06-15 05:22:00,
2013-06-14 22:33:00,57.0,22.0,-100.00,SSW,203,3.0,5.0,25,-99.99,,,-99.99,,2013-06-15 05:33:00,
2013-06-14 22:43:00,53.0,21.0,-100.00,West,277,4.0,8.0,28,-99.99,,,-99.99,,2013-06-15 05:43:00,
2013-06-14 22:52:00,53.0,21.0,-100.00,West,277,4.0,8.0,28,-99.99,,,-99.99,,2013-06-15 05:52:00,
2013-06-14 23:53:00,47.0,19.0,-100.00,ENE,65,0.0,3.0,33,-99.99,,,-99.99,,2013-06-15 06:53:00,